Time;durP1;ratioP1;P1;durP2;ratioP2;P2;SDS_P1;SDS_P2;PMS_P1;PMS_P2;Temp;Humidity;BMP_temperature;BMP_pressure;BME280_temperature;BME280_humidity;BME280_pressure;Samples;Min_cycle;Max_cycle;Signal;HPM_P1;HPM_P2
2022/06/08 00:01:10;;;;;;;190.02;59.72;;;;;;;13.09;100.00;100983.25;4935469;29;20055;-56
2022/06/08 00:03:45;;;;;;;197.50;58.38;;;;;;;13.05;100.00;100977.13;4935572;29;20024;-56
2022/06/08 00:06:11;;;;;;;200.68;61.50;;;;;;;13.07;100.00;100975.47;4934454;29;20530;-56
2022/06/08 00:08:37;;;;;;;193.57;60.92;;;;;;;13.06;100.00;100972.84;4939285;29;20108;-56
2022/06/08 00:11:02;;;;;;;191.75;60.38;;;;;;;13.06;100.00;100975.44;4938998;29;20063;-56
2022/06/08 00:13:28;;;;;;;188.10;61.28;;;;;;;13.05;100.00;100971.09;4938450;29;20078;-56
2022/06/08 00:15:54;;;;;;;190.23;60.80;;;;;;;13.02;100.00;100958.97;4939095;29;20028;-56
2022/06/08 00:18:20;;;;;;;191.90;60.47;;;;;;;12.97;100.00;100958.00;4938974;29;20036;-56
2022/06/08 00:20:45;;;;;;;197.77;61.35;;;;;;;12.96;100.00;100959.72;4938354;29;20034;-56
2022/06/08 00:23:10;;;;;;;201.90;64.28;;;;;;;12.95;100.00;100959.66;4938624;29;20499;-56
2022/06/08 00:25:36;;;;;;;202.10;62.85;;;;;;;12.91;100.00;100947.53;4938966;29;20495;-56
2022/06/08 00:28:02;;;;;;;196.18;62.22;;;;;;;12.89;100.00;100954.38;4938196;29;20023;-56
2022/06/08 00:30:27;;;;;;;196.23;60.17;;;;;;;12.92;100.00;100959.63;4938805;29;20026;-56
2022/06/08 00:32:53;;;;;;;209.05;62.15;;;;;;;12.88;100.00;100953.50;4938767;29;20078;-56
2022/06/08 00:35:18;;;;;;;188.95;60.33;;;;;;;12.86;100.00;100947.44;4937935;29;20044;-56
2022/06/08 00:37:43;;;;;;;209.20;63.72;;;;;;;12.87;100.00;100945.72;4938890;29;20032;-56
2022/06/08 00:40:11;;;;;;;200.35;61.05;;;;;;;12.84;100.00;100942.22;4938518;29;20075;-56
2022/06/08 00:42:38;;;;;;;175.73;57.45;;;;;;;12.76;100.00;100936.00;4938168;29;20039;-56
2022/06/08 00:45:10;;;;;;;187.35;61.97;;;;;;;12.75;100.00;100939.44;4938510;29;20428;-56
2022/06/08 00:47:42;;;;;;;174.57;58.22;;;;;;;12.64;100.00;100938.31;4938709;29;20035;-56
2022/06/08 00:50:12;;;;;;;147.02;55.05;;;;;;;12.59;100.00;100929.56;4938415;29;20032;-56
2022/06/08 00:52:38;;;;;;;157.90;55.65;;;;;;;12.53;100.00;100927.72;4938282;29;20487;-56
2022/06/08 00:55:08;;;;;;;169.20;57.85;;;;;;;12.52;100.00;100934.63;4937647;29;20086;-56
2022/06/08 00:57:45;;;;;;;199.70;60.80;;;;;;;12.54;100.00;100931.19;4938825;29;20028;-56
2022/06/08 01:00:22;;;;;;;194.55;62.10;;;;;;;12.52;100.00;100933.72;4938229;29;20031;-56
2022/06/08 01:02:47;;;;;;;200.70;64.65;;;;;;;12.50;100.00;100920.78;4937753;29;20078;-56
2022/06/08 01:05:40;;;;;;;211.88;63.65;;;;;;;12.51;100.00;100922.53;4938035;29;20110;-56
2022/06/08 01:08:18;;;;;;;190.90;63.70;;;;;;;12.45;100.00;100917.22;4938127;29;20051;-56
2022/06/08 01:10:46;;;;;;;200.15;62.35;;;;;;;12.45;100.00;100919.81;4937542;29;20046;-56
2022/06/08 01:13:12;;;;;;;174.48;59.28;;;;;;;12.37;100.00;100916.19;4937853;29;20024;-56
2022/06/08 01:15:41;;;;;;;158.52;56.05;;;;;;;12.29;100.00;100918.59;4938118;29;20035;-56
2022/06/08 01:18:06;;;;;;;169.25;59.42;;;;;;;12.27;100.00;100916.78;4936993;29;20034;-56
2022/06/08 01:20:32;;;;;;;205.30;63.00;;;;;;;12.28;100.00;100897.88;4938147;29;20110;-56
2022/06/08 01:22:59;;;;;;;200.95;61.80;;;;;;;12.26;100.00;100905.56;4937013;29;20039;-56
2022/06/08 01:25:27;;;;;;;195.88;62.50;;;;;;;12.22;100.00;100893.41;4937797;29;20032;-56
2022/06/08 01:28:13;;;;;;;211.05;67.40;;;;;;;12.26;100.00;100889.19;4937617;29;20493;-56
2022/06/08 01:30:57;;;;;;;194.07;60.50;;;;;;;12.18;100.00;100891.59;4937312;29;20032;-56
2022/06/08 01:33:25;;;;;;;169.15;56.90;;;;;;;12.10;100.00;100880.22;4937712;29;20039;-56
2022/06/08 01:36:11;;;;;;;198.23;62.80;;;;;;;12.10;100.00;100880.22;4937683;29;20034;-55
2022/06/08 01:39:03;;;;;;;203.25;62.22;;;;;;;12.08;100.00;100875.00;4936953;29;20036;-56
2022/06/08 01:41:34;;;;;;;204.80;63.22;;;;;;;12.07;100.00;100872.38;4937672;29;20035;-56
2022/06/08 01:44:24;;;;;;;214.02;65.00;;;;;;;12.08;100.00;100869.84;4936659;29;20472;-56
2022/06/08 01:46:59;;;;;;;185.20;59.45;;;;;;;12.02;100.00;100869.72;4937372;29;20059;-56
2022/06/08 01:49:53;;;;;;;192.88;61.63;;;;;;;12.01;100.00;100862.78;4937570;29;20103;-56
2022/06/08 01:52:32;;;;;;;209.23;60.97;;;;;;;11.93;100.00;100859.09;4935205;29;20472;-56
2022/06/08 01:55:09;;;;;;;186.82;60.58;;;;;;;11.94;100.00;100856.59;4937220;29;20055;-56
2022/06/08 01:57:56;;;;;;;195.23;62.30;;;;;;;11.94;100.00;100855.69;4937544;29;20106;-56
2022/06/08 02:00:33;;;;;;;215.48;63.53;;;;;;;11.96;100.00;100849.75;4936623;29;20028;-56
2022/06/08 02:03:17;;;;;;;215.82;66.93;;;;;;;11.97;100.00;100845.47;4937176;29;20016;-56
2022/06/08 02:06:11;;;;;;;202.77;60.88;;;;;;;11.98;100.00;100842.03;4936369;29;20023;-56
2022/06/08 02:08:51;;;;;;;225.02;64.50;;;;;;;12.01;100.00;100842.13;4937308;29;20024;-56
2022/06/08 02:11:43;;;;;;;218.38;65.75;;;;;;;11.99;100.00;100839.50;4936965;29;20555;-56
2022/06/08 02:14:37;;;;;;;222.35;64.57;;;;;;;12.01;100.00;100822.31;4934616;29;20058;-56
2022/06/08 02:17:07;;;;;;;198.20;60.58;;;;;;;12.02;100.00;100825.81;4936642;29;20044;-56
2022/06/08 02:19:41;;;;;;;206.57;63.60;;;;;;;11.99;100.00;100820.53;4936151;29;20102;-56
2022/06/08 02:22:36;;;;;;;201.73;61.58;;;;;;;11.97;100.00;100809.31;4936741;29;20024;-56
2022/06/08 02:25:10;;;;;;;195.02;59.92;;;;;;;11.90;100.00;100807.38;4936964;29;20073;-56
2022/06/08 02:27:42;;;;;;;172.75;56.20;;;;;;;11.85;100.00;100803.00;4936229;29;20063;-56
2022/06/08 02:30:21;;;;;;;178.57;55.28;;;;;;;11.82;100.00;100805.47;4935964;29;20039;-56
2022/06/08 02:35:46;;;;;;;160.85;54.30;;;;;;;11.74;100.00;100788.94;4936969;29;20439;-56
2022/06/08 02:38:16;;;;;;;158.10;53.70;;;;;;;11.70;100.00;100795.75;4936421;29;20027;-56
2022/06/08 02:40:46;;;;;;;169.68;57.35;;;;;;;11.68;100.00;100793.97;4935810;29;20016;-56
2022/06/08 02:43:23;;;;;;;173.00;55.20;;;;;;;11.68;100.00;100788.78;4936224;29;20151;-56
2022/06/08 02:46:13;;;;;;;171.65;54.00;;;;;;;11.67;100.00;100785.34;4936628;29;20027;-56
2022/06/08 02:48:38;;;;;;;163.80;53.80;;;;;;;11.63;100.00;100782.66;4928704;29;20047;-56
2022/06/08 02:51:04;;;;;;;176.40;52.22;;;;;;;11.64;100.00;100774.94;4936274;29;20020;-55
2022/06/08 02:53:29;;;;;;;171.65;51.63;;;;;;;11.66;100.00;100775.84;4936115;29;20024;-56
2022/06/08 02:56:16;;;;;;;162.18;51.08;;;;;;;11.60;100.00;100772.25;4935622;29;20419;-55
2022/06/08 02:58:49;;;;;;;159.52;51.15;;;;;;;11.59;100.00;100776.53;4936433;29;20031;-56
2022/06/08 03:01:30;;;;;;;157.45;51.00;;;;;;;11.61;100.00;100784.34;4936076;29;20034;-56
2022/06/08 03:04:02;;;;;;;161.68;50.42;;;;;;;11.57;100.00;100777.31;4935930;29;20051;-56
2022/06/08 03:06:35;;;;;;;146.90;48.45;;;;;;;11.58;100.00;100774.81;4936147;29;20036;-56
2022/06/08 03:09:05;;;;;;;158.95;49.42;;;;;;;11.50;100.00;100761.72;4935262;29;20122;-56
2022/06/08 03:11:39;;;;;;;132.65;43.83;;;;;;;11.51;100.00;100763.44;4935843;29;20365;-56
2022/06/08 03:14:08;;;;;;;124.45;43.65;;;;;;;11.38;100.00;100761.41;4935879;29;20031;-56
2022/06/08 03:16:39;;;;;;;128.10;45.00;;;;;;;11.43;100.00;100751.22;4935207;29;20035;-56
2022/06/08 03:19:05;;;;;;;129.90;44.10;;;;;;;11.42;100.00;100758.06;4935953;29;20035;-56
2022/06/08 03:21:30;;;;;;;143.50;45.45;;;;;;;11.44;100.00;100753.81;4935912;29;20490;-56
2022/06/08 03:23:56;;;;;;;144.55;46.92;;;;;;;11.44;100.00;100753.81;4934842;29;20496;-56
2022/06/08 03:26:24;;;;;;;138.27;46.80;;;;;;;11.44;100.00;100756.41;4935782;29;20086;-56
2022/06/08 03:28:50;;;;;;;143.30;45.00;;;;;;;11.51;100.00;100758.28;4935505;29;20031;-56
2022/06/08 03:31:16;;;;;;;132.32;43.65;;;;;;;11.49;100.00;100754.81;4935061;29;20027;-56
2022/06/08 03:33:41;;;;;;;154.98;48.17;;;;;;;11.56;100.00;100765.28;4935745;29;20543;-56
2022/06/08 03:36:07;;;;;;;134.45;43.90;;;;;;;11.57;100.00;100756.69;4935421;29;20040;-56
2022/06/08 03:38:33;;;;;;;137.98;44.08;;;;;;;11.62;100.00;100761.13;4935086;29;20034;-56
2022/06/08 03:40:58;;;;;;;138.23;46.40;;;;;;;11.70;100.00;100758.72;4934869;29;20032;-56
2022/06/08 03:43:23;;;;;;;140.95;45.28;;;;;;;11.77;100.00;100765.78;4935333;29;20057;-56
2022/06/08 03:45:53;;;;;;;143.65;45.47;;;;;;;11.85;100.00;100759.09;4935067;29;20372;-56
2022/06/08 03:48:19;;;;;;;142.65;46.25;;;;;;;11.95;100.00;100756.72;4935611;29;20027;-56
2022/06/08 03:50:48;;;;;;;136.95;44.80;;;;;;;12.02;100.00;100761.22;4934907;29;20032;-56
2022/06/08 03:53:18;;;;;;;144.35;44.08;;;;;;;12.10;100.00;100769.16;4935216;29;20148;-56
2022/06/08 03:55:45;;;;;;;136.77;44.45;;;;;;;12.21;100.00;100767.63;4935465;29;20480;-56
2022/06/08 03:58:11;;;;;;;122.03;42.25;;;;;;;12.26;100.00;100765.16;4934520;29;20028;-56
2022/06/08 04:00:37;;;;;;;126.43;42.03;;;;;;;12.31;100.00;100764.41;4935640;29;20039;-56
2022/06/08 04:03:04;;;;;;;123.65;41.63;;;;;;;12.35;100.00;100770.53;4935520;29;20532;-56
2022/06/08 04:05:30;;;;;;;102.40;37.63;;;;;;;12.41;100.00;100765.50;4934662;29;20067;-56
2022/06/08 04:07:55;;;;;;;108.65;37.80;;;;;;;12.44;100.00;100757.78;4935214;29;20067;-56
2022/06/08 04:10:21;;;;;;;96.88;36.10;;;;;;;12.47;100.00;100759.56;4935348;29;20032;-56
2022/06/08 04:12:46;;;;;;;89.57;35.38;;;;;;;12.50;100.00;100750.16;4934565;29;20031;-56
2022/06/08 04:15:41;;;;;;;89.63;34.72;;;;;;;12.55;100.00;100749.38;4935317;29;20039;-56
2022/06/08 04:17:57;;;;;;;94.15;36.53;;;;;;;12.61;100.00;100752.09;4935088;29;20070;-56
2022/06/08 04:20:23;;;;;;;85.05;33.15;;;;;;;12.63;100.00;100750.41;4934464;29;20055;-56
2022/06/08 04:22:48;;;;;;;80.15;33.15;;;;;;;12.64;100.00;100741.78;4935231;29;20032;-56
2022/06/08 04:25:14;;;;;;;87.00;34.42;;;;;;;12.68;100.00;100738.44;4934944;29;20062;-56
2022/06/08 04:27:39;;;;;;;76.00;32.38;;;;;;;12.68;100.00;100741.03;4934741;29;20028;-56
2022/06/08 04:30:06;;;;;;;69.88;29.77;;;;;;;12.70;100.00;100743.66;4935280;29;20024;-56
2022/06/08 04:32:31;;;;;;;72.35;31.10;;;;;;;12.70;100.00;100744.50;4935137;29;20090;-56
2022/06/08 04:34:57;;;;;;;72.97;30.63;;;;;;;12.72;100.00;100750.59;4934307;29;20496;-56
2022/06/08 04:37:22;;;;;;;68.22;30.13;;;;;;;12.74;100.00;100741.13;4935067;29;20020;-56
2022/06/08 04:39:47;;;;;;;68.25;30.08;;;;;;;12.76;100.00;100736.00;4934298;29;20501;-56
2022/06/08 04:42:13;;;;;;;68.90;31.38;;;;;;;12.79;100.00;100742.09;4935018;29;20031;-56
2022/06/08 04:44:38;;;;;;;93.60;33.47;;;;;;;12.80;100.00;100735.22;4935274;29;20024;-56
2022/06/08 04:47:04;;;;;;;77.43;33.15;;;;;;;12.83;100.00;100736.16;4934243;29;20035;-56
2022/06/08 04:49:29;;;;;;;73.43;33.65;;;;;;;12.88;100.00;100725.00;4935133;29;20031;-56
2022/06/08 04:51:54;;;;;;;78.05;33.28;;;;;;;12.93;100.00;100723.38;4935003;29;20106;-56
2022/06/08 04:54:20;;;;;;;77.30;33.13;;;;;;;12.99;100.00;100716.59;4937093;29;20041;-56
2022/06/08 04:56:46;;;;;;;73.20;31.83;;;;;;;13.02;100.00;100713.19;4938586;29;20468;-56
2022/06/08 04:59:11;;;;;;;65.97;30.50;;;;;;;13.10;100.00;100719.34;4938311;29;20032;-56
2022/06/08 05:01:36;;;;;;;75.07;32.15;;;;;;;13.16;100.00;100716.88;4937710;29;20106;-56
2022/06/08 05:04:02;;;;;;;63.33;29.45;;;;;;;13.20;100.00;100716.94;4938273;29;20027;-56
2022/06/08 05:06:27;;;;;;;59.10;26.58;;;;;;;13.21;100.00;100709.22;4938244;29;20051;-56
2022/06/08 05:08:52;;;;;;;59.60;27.75;;;;;;;13.26;100.00;100722.22;4937182;29;20027;-56
2022/06/08 05:11:19;;;;;;;58.97;26.90;;;;;;;13.27;100.00;100719.66;4938216;29;20024;-56
2022/06/08 05:13:46;;;;;;;51.75;25.45;;;;;;;13.28;100.00;100711.03;4938136;29;20095;-56
2022/06/08 05:16:12;;;;;;;44.28;24.15;;;;;;;13.30;100.00;100711.09;4937164;29;20050;-56
2022/06/08 05:18:38;;;;;;;45.65;23.20;;;;;;;13.33;100.00;100713.72;4938338;29;20047;-56
2022/06/08 05:21:03;;;;;;;44.60;23.05;;;;;;;13.34;100.00;100708.53;4937921;29;20082;-56
2022/06/08 05:23:34;;;;;;;44.50;23.08;;;;;;;13.37;100.00;100702.59;4936925;29;20051;-56
2022/06/08 05:26:00;;;;;;;45.55;23.30;;;;;;;13.44;100.00;100695.78;4938023;29;20102;-56
2022/06/08 05:28:26;;;;;;;46.20;23.65;;;;;;;13.42;100.00;100692.31;4937840;29;20428;-56
2022/06/08 05:30:53;;;;;;;43.13;23.80;;;;;;;13.43;100.00;100687.16;4936974;29;20091;-56
2022/06/08 05:33:19;;;;;;;47.00;24.98;;;;;;;13.47;100.00;100686.34;4937656;29;20036;-56
2022/06/08 05:35:44;;;;;;;41.40;23.73;;;;;;;13.51;100.00;100684.69;4937640;29;20051;-56
2022/06/08 05:38:11;;;;;;;44.25;24.52;;;;;;;13.55;100.00;100683.00;4936691;29;20067;-56
2022/06/08 05:40:37;;;;;;;46.45;24.33;;;;;;;13.57;100.00;100682.19;4937796;29;20027;-56
2022/06/08 05:43:05;;;;;;;44.90;24.05;;;;;;;13.60;100.00;100668.41;4937294;29;20047;-56
2022/06/08 05:45:30;;;;;;;;;;;;;;;13.69;100.00;100670.28;4938038;29;20114;-56
2022/06/08 05:47:57;;;;;;;40.63;22.83;;;;;;;13.70;100.00;100667.69;4937419;28;19993;-56
2022/06/08 05:50:24;;;;;;;41.97;23.02;;;;;;;13.76;100.00;100670.38;4936676;29;20031;-56
2022/06/08 05:52:50;;;;;;;46.10;24.38;;;;;;;13.86;100.00;100667.91;4937411;29;20036;-56
2022/06/08 05:55:17;;;;;;;43.08;23.90;;;;;;;13.91;100.00;100663.66;4937207;29;20472;-56
2022/06/08 05:57:43;;;;;;;47.85;24.13;;;;;;;13.94;100.00;100663.69;4936780;29;20024;-56
2022/06/08 06:00:12;;;;;;;48.25;24.38;;;;;;;13.98;100.00;100660.28;4937055;29;20030;-56
2022/06/08 06:02:38;;;;;;;41.10;24.23;;;;;;;14.04;100.00;100651.72;4937298;29;20036;-56
2022/06/08 06:05:04;;;;;;;44.65;24.73;;;;;;;14.12;100.00;100650.94;4935245;29;20388;-56
2022/06/08 06:07:29;;;;;;;48.13;26.05;;;;;;;14.21;100.00;100651.91;4937328;29;20028;-56
2022/06/08 06:09:55;;;;;;;45.70;24.65;;;;;;;14.30;100.00;100644.22;4937178;29;20083;-56
2022/06/08 06:12:20;;;;;;;42.50;23.70;;;;;;;14.36;100.00;100641.72;4936073;29;20491;-56
2022/06/08 06:14:46;;;;;;;42.25;24.42;;;;;;;14.42;100.00;100639.19;4937030;29;20043;-56
2022/06/08 06:17:12;;;;;;;46.70;25.77;;;;;;;14.47;100.00;100641.81;4936618;29;20038;-56
2022/06/08 06:19:37;;;;;;;36.60;21.20;;;;;;;14.45;100.00;100643.53;4936135;29;20482;-56
2022/06/08 06:22:02;;;;;;;35.50;20.52;;;;;;;14.45;100.00;100641.81;4936732;29;20023;-56
2022/06/08 06:24:28;;;;;;;28.90;17.60;;;;;;;14.45;100.00;100646.13;4936573;29;20083;-56
2022/06/08 06:26:54;;;;;;;37.58;19.63;;;;;;;14.49;100.00;100651.34;4935935;29;20066;-56
2022/06/08 06:29:20;;;;;;;39.13;20.65;;;;;;;14.55;100.00;100654.84;4936779;29;20051;-56
2022/06/08 06:31:54;;;;;;;37.60;20.67;;;;;;;14.55;100.00;100650.56;4936816;29;20436;-56
2022/06/08 06:34:22;;;;;;;36.20;20.25;;;;;;;14.57;100.00;100643.66;4935699;29;20102;-56
2022/06/08 06:36:48;;;;;;;36.22;19.85;;;;;;;14.60;100.00;100653.19;4936766;29;20079;-56
2022/06/08 06:39:14;;;;;;;34.75;19.17;;;;;;;14.58;100.00;100650.59;4936352;29;20062;-56
2022/06/08 06:41:40;;;;;;;31.17;17.35;;;;;;;14.56;100.00;100652.28;4935855;29;20460;-57
2022/06/08 06:44:06;;;;;;;31.15;17.30;;;;;;;14.59;100.00;100646.25;4936268;29;20480;-56
2022/06/08 06:46:31;;;;;;;32.03;16.48;;;;;;;14.66;100.00;100650.69;4935661;29;20090;-56
2022/06/08 06:48:57;;;;;;;27.55;15.13;;;;;;;14.78;100.00;100655.13;4936140;29;20102;-57
2022/06/08 06:51:22;;;;;;;31.52;13.38;;;;;;;14.84;100.00;100647.41;4936378;29;20027;-56
2022/06/08 06:53:47;;;;;;;25.77;12.38;;;;;;;14.95;100.00;100644.88;4935621;29;20058;-56
2022/06/08 06:56:13;;;;;;;23.00;11.23;;;;;;;15.05;100.00;100646.69;4936205;29;20473;-56
2022/06/08 06:58:38;;;;;;;18.92;10.98;;;;;;;15.17;100.00;100639.88;4936413;29;20075;-56
2022/06/08 07:01:05;;;;;;;21.63;10.18;;;;;;;15.26;100.00;100634.72;4935263;29;20467;-56
2022/06/08 07:03:31;;;;;;;20.17;9.98;;;;;;;15.35;100.00;100632.22;4936012;29;20028;-56
2022/06/08 07:05:57;;;;;;;22.15;10.20;;;;;;;15.43;99.82;100632.28;4936170;29;20031;-56
2022/06/08 07:08:23;;;;;;;23.27;10.52;;;;;;;15.50;100.00;100628.84;4935586;29;20408;-56
2022/06/08 07:11:32;;;;;;;18.35;9.38;;;;;;;15.58;98.58;100616.78;4936188;29;20472;-56
2022/06/08 07:13:34;;;;;;;19.95;9.35;;;;;;;15.66;100.00;100622.00;4935790;29;20135;-56
2022/06/08 07:15:59;;;;;;;18.75;9.02;;;;;;;15.70;99.17;100613.38;4934762;29;20114;-56
2022/06/08 07:18:25;;;;;;;23.20;9.73;;;;;;;15.77;98.86;100619.44;4936027;29;20104;-56
2022/06/08 07:20:50;;;;;;;22.30;9.50;;;;;;;15.91;98.74;100614.34;4935670;29;20027;-56
2022/06/08 07:23:15;;;;;;;22.25;10.48;;;;;;;16.02;98.72;100619.56;4934967;29;20099;-56
2022/06/08 07:25:41;;;;;;;17.17;8.63;;;;;;;16.06;97.45;100614.41;4936109;29;20039;-56
2022/06/08 07:28:06;;;;;;;20.90;8.80;;;;;;;16.15;96.68;100617.88;4935680;29;20535;-56
2022/06/08 07:30:31;;;;;;;20.58;8.68;;;;;;;16.22;96.44;100623.09;4934919;29;20035;-56
2022/06/08 07:32:57;;;;;;;23.95;8.60;;;;;;;16.27;95.19;100616.19;4935465;29;20032;-56
2022/06/08 07:35:22;;;;;;;17.00;8.18;;;;;;;16.38;97.11;100611.00;4935794;29;20587;-56
2022/06/08 07:37:48;;;;;;;20.83;8.40;;;;;;;16.54;96.47;100611.91;4935282;29;20031;-56
2022/06/08 07:40:13;;;;;;;23.83;8.25;;;;;;;16.50;91.85;100604.97;4935297;29;20412;-56
2022/06/08 07:42:39;;;;;;;19.98;7.68;;;;;;;16.56;92.97;100601.50;4934932;29;20505;-56
2022/06/08 07:45:06;;;;;;;18.48;7.38;;;;;;;16.69;91.64;100605.81;4935539;29;20019;-56
2022/06/08 07:47:32;;;;;;;;;;;;;;;16.90;94.84;100604.09;4935893;29;20064;-56
2022/06/08 07:49:57;;;;;;;18.97;7.13;;;;;;;17.09;88.26;100599.78;4934857;29;20009;-56
2022/06/08 07:52:22;;;;;;;18.65;7.32;;;;;;;17.29;88.00;100602.38;4935558;29;20492;-56
2022/06/08 07:54:49;;;;;;;19.17;7.60;;;;;;;17.44;88.69;100601.44;4935664;29;20023;-56
2022/06/08 07:57:21;;;;;;;25.77;7.32;;;;;;;17.53;86.30;100611.88;4934602;29;20035;-56
2022/06/08 07:59:47;;;;;;;19.75;6.70;;;;;;;17.57;85.42;100605.75;4935507;29;20034;-56
2022/06/08 08:02:12;;;;;;;25.45;7.05;;;;;;;17.51;84.26;100607.53;4935438;29;20399;-56
2022/06/08 08:04:38;;;;;;;19.00;7.20;;;;;;;17.55;86.62;100619.66;4934951;29;20463;-56
2022/06/08 08:07:04;;;;;;;19.08;7.20;;;;;;;17.62;85.54;100613.53;4935373;29;20398;-56
2022/06/08 08:09:33;;;;;;;14.80;6.60;;;;;;;17.60;84.92;100612.72;4935374;29;20623;-56
2022/06/08 08:11:58;;;;;;;24.33;6.45;;;;;;;17.75;84.06;100609.16;4934473;29;20028;-56
2022/06/08 08:14:24;;;;;;;19.98;6.90;;;;;;;17.78;82.81;100611.78;4935188;29;20047;-56
2022/06/08 08:16:50;;;;;;;17.40;7.40;;;;;;;17.82;82.83;100612.59;4935409;29;20023;-56
2022/06/08 08:19:18;;;;;;;14.93;5.95;;;;;;;17.78;83.39;100607.41;4934745;29;20444;-56
2022/06/08 08:21:44;;;;;;;17.85;6.20;;;;;;;17.93;83.03;100608.25;4935443;29;20024;-56
2022/06/08 08:24:10;;;;;;;20.85;7.22;;;;;;;17.98;84.60;100603.88;4934979;29;20054;-56
2022/06/08 08:26:35;;;;;;;18.13;5.90;;;;;;;17.95;82.02;100603.91;4934648;29;20023;-56
2022/06/08 08:29:01;;;;;;;18.08;6.82;;;;;;;17.91;80.87;100609.97;4937735;29;20059;-56
2022/06/08 08:31:26;;;;;;;22.17;6.35;;;;;;;17.87;82.22;100610.84;4939082;29;20036;-56
2022/06/08 08:33:51;;;;;;;15.27;6.38;;;;;;;17.86;81.11;100610.00;4938210;29;20031;-56
2022/06/08 08:36:18;;;;;;;29.75;7.55;;;;;;;17.76;81.57;100609.16;4938672;29;20024;-56
2022/06/08 08:38:44;;;;;;;18.40;6.20;;;;;;;17.70;84.22;100613.53;4938963;29;20110;-56
2022/06/08 08:42:20;;;;;;;18.08;6.07;;;;;;;17.66;82.75;100611.81;4937732;29;20102;-56
2022/06/08 08:43:59;;;;;;;19.73;7.25;;;;;;;17.50;82.21;100611.00;4938419;29;20508;-56
2022/06/08 08:46:55;;;;;;;16.27;7.03;;;;;;;17.47;84.05;100603.16;4937825;29;20063;-56
2022/06/08 08:49:23;;;;;;;21.35;6.97;;;;;;;17.40;83.22;100603.22;4936189;29;20072;-56
2022/06/08 08:51:59;;;;;;;16.10;6.47;;;;;;;17.44;83.63;100602.31;4938511;29;20111;-56
2022/06/08 08:54:31;;;;;;;20.38;6.50;;;;;;;17.41;83.20;100606.66;4937926;29;20099;-56
2022/06/08 08:57:18;;;;;;;21.95;7.18;;;;;;;17.46;83.94;100606.69;4938533;29;20020;-55
2022/06/08 08:59:45;;;;;;;18.27;6.80;;;;;;;17.48;82.87;100608.41;4938372;29;20389;-56
2022/06/08 09:05:13;;;;;;;19.67;7.50;;;;;;;17.43;83.37;100621.44;4938531;29;20035;-56
2022/06/08 09:07:38;;;;;;;25.38;7.95;;;;;;;17.48;81.75;100607.50;4937594;29;20039;-56
2022/06/08 09:10:04;;;;;;;21.08;7.85;;;;;;;17.46;81.88;100614.50;4938124;29;20391;-56
2022/06/08 09:12:29;;;;;;;21.17;7.13;;;;;;;17.50;82.89;100613.59;4938010;29;20035;-56
2022/06/08 09:14:59;;;;;;;15.93;6.10;;;;;;;17.48;81.31;100615.34;4937096;29;20055;-55
2022/06/08 09:17:39;;;;;;;23.20;7.00;;;;;;;17.44;82.12;100619.69;4938069;29;20032;-55
2022/06/08 09:20:26;;;;;;;24.65;6.28;;;;;;;17.35;82.43;100619.69;4938227;29;20032;-56
2022/06/08 09:22:54;;;;;;;21.70;6.80;;;;;;;17.19;82.33;100621.47;4936947;29;20074;-55
2022/06/08 09:25:26;;;;;;;24.60;6.78;;;;;;;17.07;82.62;100611.94;4937841;29;20110;-56
2022/06/08 09:27:55;;;;;;;23.67;7.13;;;;;;;16.92;84.37;100612.81;4937887;29;20096;-56
2022/06/08 09:30:24;;;;;;;18.52;6.80;;;;;;;16.76;85.33;100612.78;4936988;29;20473;-56
2022/06/08 09:33:17;;;;;;;25.42;7.90;;;;;;;16.62;86.12;100619.72;4937651;29;20031;-56
2022/06/08 09:36:06;;;;;;;20.60;7.53;;;;;;;16.48;86.34;100611.03;4937011;29;20083;-55
2022/06/08 09:38:36;;;;;;;22.52;7.80;;;;;;;16.35;87.74;100611.00;4937607;29;20464;-56
2022/06/08 09:41:20;;;;;;;20.48;7.63;;;;;;;16.29;88.80;100618.78;4937600;29;20094;-55
2022/06/08 09:44:00;;;;;;;23.08;8.85;;;;;;;16.24;89.58;100615.31;4936849;29;20024;-56
2022/06/08 09:52:54;;;;;;;21.25;7.97;;;;;;;16.24;92.58;100620.50;4937797;29;20391;-56
2022/06/08 09:55:43;;;;;;;26.00;7.70;;;;;;;16.20;90.31;100622.22;4937568;29;20032;-56
2022/06/08 09:58:47;;;;;;;24.77;7.80;;;;;;;16.16;91.64;100625.69;4936270;29;20432;-56
2022/06/08 10:01:18;;;;;;;27.73;8.13;;;;;;;16.06;92.13;100618.72;4933070;29;20082;-55
2022/06/08 10:04:02;;;;;;;18.48;6.85;;;;;;;15.94;91.08;100629.94;4936478;29;20031;-56
2022/06/08 10:06:57;;;;;;;19.33;6.90;;;;;;;15.88;92.53;100624.72;4937164;29;20034;-56
2022/06/08 10:09:59;;;;;;;27.80;7.53;;;;;;;15.82;92.92;100616.91;4937262;29;20027;-56
2022/06/08 10:12:42;;;;;;;23.75;7.57;;;;;;;15.78;94.98;100629.00;4936334;29;20031;-56
2022/06/08 10:15:43;;;;;;;19.90;7.45;;;;;;;15.78;95.28;100624.66;4936722;29;20102;-56
2022/06/08 10:18:28;;;;;;;26.63;7.70;;;;;;;15.71;94.81;100622.00;4936067;29;20054;-56
2022/06/08 10:21:00;;;;;;;22.23;6.93;;;;;;;15.56;95.61;100618.47;4936962;29;20035;-56
2022/06/08 10:23:57;;;;;;;25.85;6.75;;;;;;;15.47;95.16;100623.63;4936555;29;20723;-56
2022/06/08 10:26:36;;;;;;;27.20;6.70;;;;;;;15.32;95.64;100624.41;4936088;29;20049;-55
2022/06/08 10:29:10;;;;;;;23.88;6.93;;;;;;;15.24;97.37;100620.88;4936690;29;20031;-56
2022/06/08 10:31:47;;;;;;;26.95;7.15;;;;;;;15.23;98.56;100624.34;4935909;29;20033;-56
2022/06/08 10:34:21;;;;;;;32.10;8.60;;;;;;;15.22;99.30;100623.47;4936608;29;20042;-56
2022/06/08 10:36:50;;;;;;;29.17;7.57;;;;;;;15.19;99.00;100628.63;4936825;29;20035;-56
2022/06/08 10:39:16;;;;;;;25.98;7.78;;;;;;;15.21;100.00;100623.44;4935758;29;20027;-56
2022/06/08 10:44:32;;;;;;;28.65;7.95;;;;;;;15.09;100.00;100627.72;4936711;29;20070;-56
2022/06/08 10:47:14;;;;;;;25.98;9.18;;;;;;;15.03;100.00;100619.00;4935682;29;20027;-56
2022/06/08 10:49:40;;;;;;;22.63;8.40;;;;;;;14.97;100.00;100620.69;4936371;29;20420;-56
2022/06/08 10:52:17;;;;;;;29.47;9.40;;;;;;;14.96;100.00;100625.88;4935811;29;20523;-56
2022/06/08 10:54:54;;;;;;;25.33;9.50;;;;;;;14.94;100.00;100625.84;4935349;29;20759;-56
2022/06/08 10:57:42;;;;;;;29.05;9.52;;;;;;;14.97;100.00;100622.41;4936363;29;20031;-56
2022/06/08 11:00:19;;;;;;;21.88;9.35;;;;;;;14.96;100.00;100612.88;4935321;29;20031;-56
2022/06/08 11:03:00;;;;;;;28.08;10.85;;;;;;;15.05;100.00;100615.53;4936243;29;20051;-56
2022/06/08 11:05:38;;;;;;;27.02;9.50;;;;;;;15.11;100.00;100619.94;4936230;29;20059;-56
2022/06/08 11:08:16;;;;;;;25.80;9.20;;;;;;;15.10;100.00;100608.66;4935223;29;20464;-56
2022/06/08 11:10:44;;;;;;;28.30;8.73;;;;;;;15.01;100.00;100608.59;4936127;29;20028;-56
2022/06/08 11:13:14;;;;;;;22.58;8.63;;;;;;;14.96;100.00;100605.09;4935628;29;20449;-55
2022/06/08 11:15:45;;;;;;;27.10;8.68;;;;;;;15.03;100.00;100606.91;4935139;29;20032;-56
2022/06/08 11:18:45;;;;;;;20.85;8.00;;;;;;;15.09;100.00;100601.75;4935922;29;20082;-56
2022/06/08 11:21:14;;;;;;;25.58;7.25;;;;;;;15.07;100.00;100595.69;4935012;29;20047;-56
2022/06/08 11:23:54;;;;;;;22.98;7.25;;;;;;;14.97;99.54;100597.31;4935734;29;20051;-56
2022/06/08 11:26:25;;;;;;;23.08;7.40;;;;;;;15.01;100.00;100592.19;4935934;29;20024;-56
2022/06/08 11:28:59;;;;;;;29.30;8.07;;;;;;;14.96;99.28;100590.41;4934982;29;20030;-56
2022/06/08 11:31:27;;;;;;;24.02;7.55;;;;;;;14.92;100.00;100580.84;4935865;29;20024;-56
2022/06/08 11:34:13;;;;;;;26.70;7.82;;;;;;;14.88;100.00;100573.06;4935626;29;20119;-56
2022/06/08 11:36:44;;;;;;;17.55;6.82;;;;;;;14.80;100.00;100573.00;4935184;29;20034;-56